createdAt,value
2022-08-17T00:00:13.615Z,45.69
2022-08-17T00:03:02.782Z,45.70
2022-08-17T00:05:32.711Z,46.37
2022-08-17T00:08:01.557Z,46.12
2022-08-17T00:10:29.202Z,46.26
2022-08-17T00:12:59.805Z,46.35
2022-08-17T00:15:27.770Z,46.38
2022-08-17T00:17:55.296Z,46.29
2022-08-17T00:20:23.454Z,46.44
2022-08-17T00:23:13.453Z,46.35
2022-08-17T00:25:41.529Z,47.13
2022-08-17T00:28:09.442Z,45.90
2022-08-17T00:30:50.880Z,45.97
2022-08-17T00:33:26.126Z,46.91
2022-08-17T00:35:54.786Z,46.18
2022-08-17T00:38:24.399Z,46.49
2022-08-17T00:40:55.978Z,46.75
2022-08-17T00:43:32.729Z,46.63
2022-08-17T00:46:02.317Z,46.79
2022-08-17T00:48:30.904Z,46.78
2022-08-17T00:51:04.685Z,46.68
2022-08-17T00:53:36.497Z,46.72
2022-08-17T00:56:09.349Z,46.96
2022-08-17T00:58:38.299Z,46.69
2022-08-17T01:01:09.011Z,47.19
2022-08-17T01:03:38.169Z,47.19
2022-08-17T01:06:09.050Z,47.05
2022-08-17T01:08:40.943Z,47.32
2022-08-17T01:11:09.030Z,47.08
2022-08-17T01:13:41.712Z,47.38
2022-08-17T01:16:15.870Z,47.26
2022-08-17T01:18:44.767Z,47.13
2022-08-17T01:21:19.468Z,47.13
2022-08-17T01:23:48.330Z,46.98
2022-08-17T01:26:16.432Z,47.30
2022-08-17T01:28:54.066Z,46.98
2022-08-17T01:31:24.944Z,47.10
2022-08-17T01:33:52.528Z,47.15
2022-08-17T01:36:20.544Z,47.23
2022-08-17T01:38:49.482Z,47.04
2022-08-17T01:41:17.699Z,47.31
2022-08-17T01:43:48.798Z,47.04
2022-08-17T01:46:20.069Z,47.10
2022-08-17T01:48:48.402Z,47.13
2022-08-17T01:51:16.636Z,47.14
2022-08-17T01:53:48.337Z,46.92
2022-08-17T01:56:21.094Z,46.92
2022-08-17T01:58:48.652Z,47.05
2022-08-17T02:01:17.789Z,46.87
2022-08-17T02:03:59.149Z,46.83
2022-08-17T02:06:30.340Z,46.81
2022-08-17T02:09:02.894Z,46.82
2022-08-17T02:11:34.240Z,46.40
2022-08-17T02:14:04.059Z,46.58
2022-08-17T02:16:36.781Z,46.55
2022-08-17T02:19:08.188Z,46.53
2022-08-17T02:21:36.195Z,46.57
2022-08-17T02:24:05.838Z,46.52
2022-08-17T02:26:34.802Z,46.58
2022-08-17T02:29:04.001Z,46.47
2022-08-17T02:31:31.980Z,46.67
2022-08-17T02:34:04.543Z,46.66
2022-08-17T02:36:33.578Z,46.42
2022-08-17T02:39:01.634Z,46.57
2022-08-17T02:41:29.368Z,46.78
2022-08-17T02:43:58.580Z,46.54
2022-08-17T02:46:26.496Z,46.48
2022-08-17T02:48:54.085Z,46.70
2022-08-17T02:51:21.590Z,46.40
2022-08-17T02:53:49.102Z,46.33
2022-08-17T02:56:16.864Z,46.37
2022-08-17T02:58:44.387Z,46.60
2022-08-17T03:01:13.585Z,46.53
2022-08-17T03:03:41.649Z,46.39
2022-08-17T03:06:09.983Z,46.55
2022-08-17T03:08:38.153Z,46.34
2022-08-17T03:11:05.959Z,46.44
2022-08-17T03:13:34.066Z,46.39
2022-08-17T03:16:01.573Z,46.26
2022-08-17T03:18:30.408Z,46.37
2022-08-17T03:21:00.952Z,46.47
2022-08-17T03:23:30.348Z,46.48
2022-08-17T03:25:58.442Z,46.71
2022-08-17T03:28:28.141Z,46.87
2022-08-17T03:30:55.754Z,47.31
2022-08-17T03:33:23.691Z,47.26
2022-08-17T03:35:52.736Z,47.44
2022-08-17T03:38:20.436Z,47.42
2022-08-17T03:40:58.921Z,47.52
2022-08-17T03:43:29.466Z,47.46
2022-08-17T03:46:34.778Z,48.16
2022-08-17T03:49:20.012Z,47.95
2022-08-17T03:52:18.129Z,48.18
2022-08-17T03:55:04.329Z,47.91
2022-08-17T03:57:32.249Z,48.17
2022-08-17T03:59:59.826Z,48.88
2022-08-17T04:02:30.119Z,48.52
2022-08-17T04:04:58.272Z,48.50
2022-08-17T04:07:30.008Z,48.67
2022-08-17T04:09:59.325Z,48.53
2022-08-17T04:12:30.701Z,48.59
2022-08-17T04:14:58.577Z,48.70
2022-08-17T04:17:28.203Z,49.00
2022-08-17T04:19:56.669Z,49.30
2022-08-17T04:22:30.930Z,49.17
2022-08-17T04:25:03.869Z,49.44
2022-08-17T04:27:31.736Z,48.93
2022-08-17T04:29:59.496Z,49.27
2022-08-17T04:33:04.429Z,48.93
2022-08-17T04:35:19.196Z,49.41
2022-08-17T04:37:47.354Z,49.38
2022-08-17T04:40:34.549Z,49.44
2022-08-17T04:43:03.654Z,49.26
2022-08-17T04:45:32.395Z,49.53
2022-08-17T04:48:00.593Z,49.56
2022-08-17T04:50:28.195Z,49.58
2022-08-17T04:52:55.972Z,49.81
2022-08-17T04:55:24.962Z,49.82
2022-08-17T04:57:52.472Z,49.56
2022-08-17T05:00:20.278Z,49.86
2022-08-17T05:02:50.475Z,49.92
2022-08-17T05:05:20.816Z,50.03
2022-08-17T05:07:48.624Z,50.07
2022-08-17T05:10:16.330Z,50.08
2022-08-17T05:12:45.340Z,50.16
2022-08-17T05:15:16.014Z,50.25
2022-08-17T05:17:43.636Z,50.35
2022-08-17T05:20:12.054Z,50.44
2022-08-17T05:22:50.127Z,50.32
2022-08-17T05:25:20.653Z,50.54
2022-08-17T05:27:55.351Z,50.31
2022-08-17T05:30:24.395Z,50.35
2022-08-17T05:32:54.066Z,50.53
2022-08-17T05:35:22.318Z,50.93
2022-08-17T05:37:50.713Z,50.84
2022-08-17T05:40:19.885Z,51.10
2022-08-17T05:42:47.863Z,51.16
2022-08-17T05:45:55.319Z,51.01
2022-08-17T05:48:08.239Z,51.25
2022-08-17T05:50:45.257Z,51.24
2022-08-17T05:53:20.337Z,51.26
2022-08-17T05:55:58.126Z,50.79
2022-08-17T05:58:41.936Z,50.93
2022-08-17T06:01:25.885Z,50.75
2022-08-17T06:04:01.594Z,50.54
2022-08-17T06:06:39.764Z,50.56
2022-08-17T06:09:24.777Z,50.65
2022-08-17T06:11:58.657Z,50.35
2022-08-17T06:14:36.210Z,50.03
2022-08-17T06:17:09.127Z,50.10
2022-08-17T06:19:41.672Z,49.97
2022-08-17T06:22:10.837Z,49.83
2022-08-17T06:24:43.192Z,49.72
2022-08-17T06:27:17.418Z,49.57
2022-08-17T06:29:53.925Z,49.35
2022-08-17T06:32:22.911Z,48.65
2022-08-17T06:34:50.590Z,48.71
2022-08-17T06:37:48.748Z,48.50
2022-08-17T06:40:30.690Z,48.64
2022-08-17T06:43:15.350Z,48.02
2022-08-17T06:45:49.046Z,47.81
2022-08-17T06:48:25.432Z,47.78
2022-08-17T06:50:59.859Z,47.22
2022-08-17T06:53:32.402Z,47.01
2022-08-17T06:56:05.905Z,47.33
2022-08-17T06:58:35.709Z,47.03
2022-08-17T07:01:10.624Z,47.15
2022-08-17T07:03:49.801Z,46.20
2022-08-17T07:06:20.589Z,46.31
2022-08-17T07:08:56.172Z,46.10
2022-08-17T07:11:28.359Z,45.36
2022-08-17T07:14:00.990Z,45.71
2022-08-17T07:16:33.359Z,45.64
2022-08-17T07:19:02.274Z,45.19
2022-08-17T07:21:41.551Z,44.87
2022-08-17T07:24:30.280Z,44.90
2022-08-17T07:27:11.140Z,44.53
2022-08-17T07:29:42.374Z,44.37
2022-08-17T07:32:11.277Z,44.07
2022-08-17T07:35:13.058Z,43.94
2022-08-17T07:37:45.494Z,43.63
2022-08-17T07:40:33.391Z,43.29
2022-08-17T07:43:22.417Z,42.92
2022-08-17T07:46:21.170Z,43.15
2022-08-17T07:48:51.714Z,42.07
2022-08-17T07:51:25.220Z,42.28
2022-08-17T07:53:54.473Z,41.80
2022-08-17T07:56:41.145Z,41.90
2022-08-17T07:59:12.123Z,41.21
2022-08-17T08:01:42.045Z,41.26
2022-08-17T08:04:49.915Z,41.12
2022-08-17T08:07:31.966Z,40.67
2022-08-17T08:10:10.623Z,40.80
2022-08-17T08:12:41.694Z,40.13
2022-08-17T08:15:17.708Z,39.48
2022-08-17T08:17:54.321Z,39.54
2022-08-17T08:20:37.750Z,38.93
2022-08-17T08:23:29.499Z,39.35
2022-08-17T08:26:13.150Z,39.07
2022-08-17T08:28:52.119Z,38.65
2022-08-17T08:31:31.472Z,38.04
2022-08-17T08:34:59.057Z,38.08
2022-08-17T08:37:17.799Z,38.33
2022-08-17T08:40:03.328Z,37.98
2022-08-17T08:42:42.718Z,37.25
2022-08-17T08:45:16.075Z,37.23
2022-08-17T08:48:05.509Z,36.88
2022-08-17T08:50:42.769Z,36.46
2022-08-17T08:53:23.593Z,36.20
2022-08-17T08:55:59.729Z,36.02
2022-08-17T08:58:41.367Z,35.91
2022-08-17T09:01:18.297Z,36.31
2022-08-17T09:04:21.361Z,36.12
2022-08-17T09:07:01.496Z,35.79
2022-08-17T09:09:42.962Z,35.55
2022-08-17T09:12:18.461Z,34.77
2022-08-17T09:14:55.859Z,35.12
2022-08-17T09:17:31.206Z,34.15
2022-08-17T09:20:04.774Z,34.25
2022-08-17T09:22:38.052Z,33.57
2022-08-17T09:25:10.841Z,33.82
2022-08-17T09:27:51.431Z,33.58
2022-08-17T09:30:19.617Z,33.57
2022-08-17T09:32:51.984Z,32.81
2022-08-17T09:35:23.748Z,32.90
2022-08-17T09:38:00.390Z,33.01
2022-08-17T09:40:33.524Z,32.90
2022-08-17T09:43:08.771Z,32.47
2022-08-17T09:45:42.586Z,31.99
2022-08-17T09:48:19.138Z,32.00
2022-08-17T09:51:03.984Z,32.47
2022-08-17T09:53:33.647Z,32.19
2022-08-17T09:56:17.626Z,31.44
2022-08-17T09:59:14.460Z,31.82
2022-08-17T10:01:48.055Z,31.87
2022-08-17T10:04:33.375Z,31.77
2022-08-17T10:07:08.326Z,31.27
2022-08-17T10:09:49.420Z,32.63
2022-08-17T10:12:30.063Z,31.63
2022-08-17T10:15:09.923Z,31.64
2022-08-17T10:17:50.767Z,32.35
2022-08-17T10:20:24.228Z,31.50
2022-08-17T10:23:14.753Z,33.35
2022-08-17T10:26:08.885Z,33.95
2022-08-17T10:28:41.434Z,34.00
2022-08-17T10:34:08.256Z,33.84
2022-08-17T10:36:43.142Z,33.64
2022-08-17T10:39:21.157Z,33.01
2022-08-17T10:41:52.826Z,34.16
2022-08-17T10:44:40.425Z,32.84
2022-08-17T10:47:13.687Z,33.28
2022-08-17T10:49:45.650Z,31.83
2022-08-17T10:52:31.871Z,32.50
2022-08-17T10:55:14.814Z,31.93
2022-08-17T10:57:45.368Z,31.40
2022-08-17T11:00:36.064Z,30.88
2022-08-17T11:03:19.626Z,31.39
2022-08-17T11:06:00.950Z,31.15
2022-08-17T11:08:53.458Z,31.11
2022-08-17T11:11:47.471Z,31.01
2022-08-17T11:14:30.774Z,30.47
2022-08-17T11:17:13.044Z,30.29
2022-08-17T11:20:15.452Z,30.12
2022-08-17T11:23:27.036Z,30.94
2022-08-17T11:25:56.328Z,31.93
2022-08-17T11:28:28.006Z,32.18
2022-08-17T11:30:58.855Z,32.03
2022-08-17T11:34:04.591Z,32.12
2022-08-17T11:36:52.751Z,31.88
2022-08-17T11:39:36.826Z,31.62
2022-08-17T11:42:11.709Z,31.95
2022-08-17T11:44:47.815Z,31.80
2022-08-17T11:47:39.355Z,31.72
2022-08-17T11:50:41.303Z,31.71
2022-08-17T11:53:48.553Z,31.38
2022-08-17T11:56:34.546Z,31.38
2022-08-17T11:59:03.009Z,31.31
2022-08-17T12:01:52.670Z,31.44
2022-08-17T12:04:27.905Z,30.79
2022-08-17T12:06:59.986Z,30.34
2022-08-17T12:09:31.730Z,30.45
2022-08-17T12:12:13.351Z,31.03
2022-08-17T12:17:41.163Z,31.52
2022-08-17T12:20:24.027Z,31.35
2022-08-17T12:23:01.190Z,31.68
2022-08-17T12:25:35.009Z,31.61
2022-08-17T12:28:07.596Z,31.90
2022-08-17T12:30:37.371Z,32.49
2022-08-17T12:33:12.241Z,32.75
2022-08-17T12:35:39.867Z,33.47
2022-08-17T12:38:26.637Z,33.20
2022-08-17T12:40:59.729Z,33.55
2022-08-17T12:43:32.779Z,33.85
2022-08-17T12:46:13.291Z,33.29
2022-08-17T12:48:59.157Z,33.27
2022-08-17T12:51:28.983Z,32.69
2022-08-17T12:53:57.515Z,32.84
2022-08-17T12:56:25.545Z,32.91
2022-08-17T12:58:55.550Z,33.23
2022-08-17T13:01:25.116Z,32.75
2022-08-17T13:03:59.651Z,32.97
2022-08-17T13:06:30.169Z,32.56
2022-08-17T13:08:57.833Z,32.23
2022-08-17T13:11:25.872Z,32.22
2022-08-17T13:13:56.928Z,32.29
2022-08-17T13:16:26.839Z,32.64
2022-08-17T13:19:05.189Z,32.41
2022-08-17T13:21:33.857Z,32.32
2022-08-17T13:24:04.642Z,32.02
2022-08-17T13:26:35.169Z,32.53
2022-08-17T13:29:07.626Z,32.51
2022-08-17T13:31:52.187Z,32.22
2022-08-17T13:34:56.146Z,32.42
2022-08-17T13:37:30.784Z,32.47
2022-08-17T13:40:00.777Z,32.37
2022-08-17T13:42:35.127Z,32.53
2022-08-17T13:45:50.413Z,32.69
2022-08-17T13:48:26.805Z,32.12
2022-08-17T13:51:12.637Z,32.95
2022-08-17T13:54:01.195Z,32.54
2022-08-17T13:56:37.587Z,32.96
2022-08-17T13:59:11.140Z,32.87
2022-08-17T14:01:41.153Z,32.25
2022-08-17T14:04:12.091Z,32.42
2022-08-17T14:06:52.920Z,32.34
2022-08-17T14:09:24.496Z,32.60
2022-08-17T14:11:54.357Z,31.95
2022-08-17T14:14:24.117Z,33.73
2022-08-17T14:16:53.651Z,33.43
2022-08-17T14:19:22.113Z,34.01
2022-08-17T14:21:50.141Z,33.45
2022-08-17T14:24:23.135Z,34.67
2022-08-17T14:26:52.282Z,34.46
2022-08-17T14:29:20.571Z,34.08
2022-08-17T14:31:49.652Z,32.84
2022-08-17T14:34:23.614Z,33.97
2022-08-17T14:36:51.317Z,34.30
2022-08-17T14:39:19.735Z,33.47
2022-08-17T14:41:47.380Z,33.81
2022-08-17T14:44:16.733Z,33.34
2022-08-17T14:46:45.703Z,33.81
2022-08-17T14:49:15.574Z,33.17
2022-08-17T14:51:44.799Z,32.95
2022-08-17T14:54:28.861Z,33.93
2022-08-17T14:57:22.635Z,34.04
2022-08-17T14:59:54.973Z,33.65
2022-08-17T15:02:30.013Z,34.24
2022-08-17T15:04:59.973Z,33.45
2022-08-17T15:07:30.665Z,33.79
2022-08-17T15:10:00.920Z,34.36
2022-08-17T15:12:32.735Z,34.17
2022-08-17T15:15:01.545Z,33.87
2022-08-17T15:17:45.125Z,33.70
2022-08-17T15:20:17.426Z,33.23
2022-08-17T15:22:49.529Z,33.29
2022-08-17T15:25:18.870Z,33.74
2022-08-17T15:27:47.426Z,33.14
2022-08-17T15:30:15.750Z,33.58
2022-08-17T15:32:48.195Z,33.91
2022-08-17T15:35:28.380Z,33.72
2022-08-17T15:38:04.521Z,34.40
2022-08-17T15:40:36.647Z,33.36
2022-08-17T15:43:06.226Z,33.82
2022-08-17T15:45:33.993Z,34.01
2022-08-17T15:48:01.564Z,34.16
2022-08-17T15:50:29.205Z,34.00
2022-08-17T15:53:00.564Z,34.13
2022-08-17T15:55:30.923Z,33.71
2022-08-17T15:57:58.698Z,33.27
2022-08-17T16:00:28.376Z,33.60
2022-08-17T16:03:45.128Z,33.56
2022-08-17T16:05:44.213Z,33.28
2022-08-17T16:08:20.663Z,33.94
2022-08-17T16:10:48.825Z,33.91
2022-08-17T16:13:17.474Z,33.07
2022-08-17T16:15:51.064Z,32.90
2022-08-17T16:18:25.749Z,33.30
2022-08-17T16:20:53.605Z,33.30
2022-08-17T16:23:22.539Z,33.45
2022-08-17T16:25:53.587Z,33.50
2022-08-17T16:28:29.873Z,32.88
2022-08-17T16:31:05.781Z,33.12
2022-08-17T16:33:36.388Z,33.04
2022-08-17T16:36:04.336Z,32.61
2022-08-17T16:38:33.222Z,32.98
2022-08-17T16:41:01.472Z,33.05
2022-08-17T16:43:29.218Z,32.92
2022-08-17T16:45:56.812Z,32.95
2022-08-17T16:48:24.375Z,33.08
2022-08-17T16:51:02.922Z,32.53
2022-08-17T16:53:32.981Z,32.68
2022-08-17T16:56:00.512Z,32.86
2022-08-17T16:58:28.245Z,33.20
2022-08-17T17:00:59.645Z,33.09
2022-08-17T17:03:30.203Z,32.53
2022-08-17T17:06:08.881Z,33.00
2022-08-17T17:08:44.503Z,32.99
2022-08-17T17:11:15.658Z,33.01
2022-08-17T17:17:27.362Z,33.53
2022-08-17T17:20:09.554Z,33.43
2022-08-17T17:26:07.709Z,33.30
2022-08-17T17:28:58.472Z,33.57
2022-08-17T17:31:33.772Z,33.20
2022-08-17T17:34:09.440Z,33.31
2022-08-17T17:36:41.828Z,33.40
2022-08-17T17:39:14.423Z,33.94
2022-08-17T17:42:05.758Z,33.75
2022-08-17T17:44:41.331Z,33.36
2022-08-17T17:47:11.735Z,34.64
2022-08-17T17:49:40.855Z,33.90
2022-08-17T17:52:18.386Z,33.89
2022-08-17T17:55:00.398Z,33.86
2022-08-17T17:57:44.100Z,33.72
2022-08-17T18:00:16.512Z,34.12
2022-08-17T18:02:59.614Z,34.12
2022-08-17T18:05:57.244Z,34.09
2022-08-17T18:08:50.716Z,34.46
2022-08-17T18:11:40.390Z,34.25
2022-08-17T18:14:23.506Z,34.38
2022-08-17T18:16:56.699Z,34.55
2022-08-17T18:19:26.124Z,34.33
2022-08-17T18:22:02.059Z,34.82
2022-08-17T18:27:02.505Z,34.62
2022-08-17T18:29:44.806Z,35.02
2022-08-17T18:32:19.126Z,35.19
2022-08-17T18:34:49.040Z,35.04
2022-08-17T18:37:37.378Z,34.93
2022-08-17T18:40:37.617Z,35.28
2022-08-17T18:43:14.937Z,35.27
2022-08-17T18:51:45.621Z,35.91
2022-08-17T19:24:47.650Z,37.86
2022-08-17T19:31:15.589Z,38.63
2022-08-17T19:33:50.587Z,38.65
2022-08-17T19:54:47.946Z,40.01
2022-08-17T20:10:55.280Z,40.60
2022-08-17T20:13:33.152Z,40.89
2022-08-17T20:16:02.350Z,40.84
2022-08-17T20:18:37.674Z,41.37
2022-08-17T20:21:20.192Z,41.65
2022-08-17T20:23:53.531Z,41.60
2022-08-17T20:26:27.434Z,41.85
2022-08-17T20:29:37.295Z,41.58
2022-08-17T20:32:26.244Z,41.65
2022-08-17T20:35:10.291Z,42.07
2022-08-17T20:37:43.125Z,42.07
2022-08-17T20:40:30.152Z,42.54
2022-08-17T20:43:00.591Z,42.50
2022-08-17T20:46:05.719Z,42.39
2022-08-17T20:48:39.318Z,42.88
2022-08-17T20:51:30.052Z,42.59
2022-08-17T20:54:22.380Z,42.67
2022-08-17T20:56:57.638Z,43.13
2022-08-17T21:00:02.818Z,42.92
2022-08-17T21:02:32.227Z,43.02
2022-08-17T21:05:30.174Z,43.43
2022-08-17T21:08:00.457Z,43.67
2022-08-17T21:10:36.844Z,43.99
2022-08-17T21:13:32.445Z,43.92
2022-08-17T21:16:07.830Z,43.88
2022-08-17T21:18:42.293Z,43.80
2022-08-17T21:21:22.505Z,44.29
2022-08-17T21:24:03.723Z,44.28
2022-08-17T21:26:50.718Z,44.47
2022-08-17T21:29:31.888Z,44.10
2022-08-17T21:32:24.412Z,43.84
2022-08-17T21:35:26.681Z,43.88
2022-08-17T21:37:59.934Z,44.10
2022-08-17T21:40:29.622Z,43.91
2022-08-17T21:43:01.099Z,44.23
2022-08-17T21:45:35.030Z,43.82
2022-08-17T21:48:14.516Z,44.43
2022-08-17T21:50:45.102Z,44.17
2022-08-17T21:53:19.390Z,44.62
2022-08-17T21:55:50.221Z,44.13
2022-08-17T21:58:29.122Z,43.77
2022-08-17T22:01:23.331Z,43.12
2022-08-17T22:04:03.250Z,42.82
2022-08-17T22:06:35.604Z,42.69
2022-08-17T22:09:14.425Z,43.73
2022-08-17T22:12:02.022Z,45.88
2022-08-17T22:14:52.217Z,47.17
2022-08-17T22:17:23.615Z,48.92
2022-08-17T22:19:56.276Z,49.57
2022-08-17T22:22:57.722Z,50.90
2022-08-17T22:25:28.033Z,50.95
2022-08-17T22:27:58.402Z,51.95
2022-08-17T22:30:35.298Z,52.58
2022-08-17T22:33:31.271Z,51.53
2022-08-17T22:36:12.243Z,52.70
2022-08-17T22:38:41.369Z,53.01
2022-08-17T22:41:32.010Z,53.95
2022-08-17T22:44:07.246Z,54.29
2022-08-17T22:46:39.798Z,54.50
2022-08-17T22:49:08.016Z,54.42
2022-08-17T22:51:37.941Z,55.64
2022-08-17T22:54:37.401Z,56.24
2022-08-17T22:57:23.795Z,56.70
2022-08-17T22:59:53.479Z,57.54
2022-08-17T23:02:25.137Z,58.36
2022-08-17T23:04:57.406Z,58.90
2022-08-17T23:07:26.173Z,57.89
2022-08-17T23:09:55.099Z,58.64
2022-08-17T23:12:27.009Z,59.51
2022-08-17T23:15:00.441Z,59.94
2022-08-17T23:17:30.413Z,59.88
2022-08-17T23:20:01.465Z,60.01
2022-08-17T23:22:33.767Z,60.36
2022-08-17T23:25:01.283Z,60.17
2022-08-17T23:27:29.344Z,60.32
2022-08-17T23:29:57.110Z,60.58
2022-08-17T23:32:25.753Z,60.52
2022-08-17T23:34:53.308Z,60.61
2022-08-17T23:37:21.225Z,61.38
2022-08-17T23:39:50.108Z,61.60
2022-08-17T23:42:21.611Z,62.04
2022-08-17T23:44:49.427Z,61.61
2022-08-17T23:47:17.246Z,61.58
2022-08-17T23:49:45.505Z,61.44
2022-08-17T23:52:16.520Z,61.80
2022-08-17T23:54:46.563Z,61.55
2022-08-17T23:57:19.746Z,62.75
